Portada
METAR-TAF:

METAR-TAF

Aeropuertos :

Aeropuerto Internacional de Kotoka

Accra, Ghana

latitud: 05-36N, longitud: 000-10W, altitud: 68 m

METAR: falta

Hora: 14:36 (14:36 UTC)

Pronóstico

El informe se hizo hace 27 horas y 36 minutos, a las 11:00 UTC
Pronóstico válido del 23 a las 12 UTC al 24 a las 18 UTC
Viento 15 kt del sur
Visibilidad 10 km o más
Nubes dispersas a una altura de 2500 ft
Probabilidad 30% :
Temporalmente
del 23 a las 17 UTC al 23 a las 21 UTC
Visibilidad: 7000 m
Cielo nuboso a una altura de 1500 ft, Cumulonimbus.
tormenta, lluvia ligera
Evolucionando progresivamente
del 24 a las 00 UTC al 24 a las 02 UTC
Viento 7 kt del oeste
Cielo nuboso a una altura de 1000 ft
Probabilidad 40%
del 24 a las 06 UTC al 24 a las 09 UTC
Visibilidad: 5000 m
neblina

TAF: DGAA 231100Z 2312/2418 19015KT 9999 SCT025 PROB30 TEMPO 2317/2321 7000 -TSRA BKN015CB BECMG 2400/2402 27007KT BKN010 PROB40 2406/2409 5000 BR NSC

Observaciones y pronósticos meteorológicos de más de 4000 aeropuertos (mensajes METAR y TAF).

Los puntos amarillos y rojos representan las estaciones disponibles.

Ponga el ratón en el punto deseado para ver el nombre de la estación.

Haga clic para ver las observaciones y los pronósticos meteorológicos.

Para cambiar el mapa : haga clic en los botones verdes con una cruz de color negro para hacer un zoom, en el botón verde con un guión para alejar o en las flechas verdes para mapas adyacentes.


METAR-TAF: